createdAt,value
2019-02-11T00:01:41.416Z,65.97
2019-02-11T00:04:13.075Z,54.17
2019-02-11T00:06:44.787Z,63.17
2019-02-11T00:09:16.499Z,58.77
2019-02-11T00:11:49.397Z,59.43
2019-02-11T00:14:20.864Z,55.43
2019-02-11T00:16:52.449Z,57.67
2019-02-11T00:19:26.887Z,54.17
2019-02-11T00:21:58.398Z,52.87
2019-02-11T00:24:30.134Z,64.53
2019-02-11T00:27:01.616Z,58.70
2019-02-11T00:29:33.187Z,61.07
2019-02-11T00:32:04.795Z,58.57
2019-02-11T00:34:36.330Z,57.13
2019-02-11T00:37:08.102Z,61.57
2019-02-11T00:39:39.559Z,60.73
2019-02-11T00:42:11.098Z,51.67
2019-02-11T00:44:42.733Z,61.33
2019-02-11T00:47:14.388Z,63.60
2019-02-11T00:49:45.967Z,56.03
2019-02-11T00:52:17.582Z,57.57
2019-02-11T00:54:49.093Z,56.20
2019-02-11T00:57:20.684Z,49.83
2019-02-11T00:59:52.253Z,55.50
2019-02-11T01:02:23.971Z,51.10
2019-02-11T01:04:55.520Z,56.80
2019-02-11T01:07:27.043Z,55.47
2019-02-11T01:09:58.741Z,51.00
2019-02-11T01:12:30.244Z,55.97
2019-02-11T01:15:01.903Z,51.87
2019-02-11T01:17:33.983Z,53.23
2019-02-11T01:20:06.191Z,51.10
2019-02-11T01:22:37.779Z,56.00
2019-02-11T01:25:10.331Z,48.57
2019-02-11T01:27:41.907Z,53.80
2019-02-11T01:30:14.488Z,57.23
2019-02-11T01:32:46.008Z,58.17
2019-02-11T01:35:17.676Z,57.03
2019-02-11T01:37:49.322Z,61.83
2019-02-11T01:40:20.855Z,61.23
2019-02-11T01:42:54.437Z,56.17
2019-02-11T01:45:25.668Z,57.93
2019-02-11T01:47:57.213Z,60.60
2019-02-11T01:50:28.732Z,54.63
2019-02-11T01:53:00.325Z,54.37
2019-02-11T01:55:31.831Z,57.53
2019-02-11T01:58:03.412Z,58.50
2019-02-11T02:00:34.913Z,62.13
2019-02-11T02:03:07.562Z,49.47
2019-02-11T02:05:39.185Z,49.60
2019-02-11T02:08:10.751Z,59.93
2019-02-11T02:10:43.603Z,55.60
2019-02-11T02:13:16.700Z,53.73
2019-02-11T02:15:48.234Z,56.80
2019-02-11T02:18:19.812Z,54.63
2019-02-11T02:20:51.380Z,53.03
2019-02-11T02:23:22.959Z,56.87
2019-02-11T02:25:54.468Z,54.37
2019-02-11T02:28:26.169Z,55.20
2019-02-11T02:30:57.694Z,51.90
2019-02-11T02:33:29.308Z,52.27
2019-02-11T02:36:00.888Z,52.90
2019-02-11T02:38:32.447Z,53.60
2019-02-11T02:41:03.973Z,60.27
2019-02-11T02:43:35.476Z,55.37
2019-02-11T02:46:07.686Z,56.70
2019-02-11T02:48:39.170Z,57.70
2019-02-11T02:51:10.699Z,56.13
2019-02-11T02:53:42.259Z,58.70
2019-02-11T02:56:13.881Z,64.43
2019-02-11T02:58:45.341Z,57.00
2019-02-11T03:01:16.882Z,57.60
2019-02-11T03:03:48.490Z,61.53
2019-02-11T03:06:20.190Z,60.57
2019-02-11T03:08:51.717Z,57.53
2019-02-11T03:11:23.393Z,62.03
2019-02-11T03:14:03.821Z,59.43
2019-02-11T03:16:28.343Z,59.20
2019-02-11T03:18:59.927Z,59.87
2019-02-11T03:21:31.550Z,62.90
2019-02-11T03:24:03.251Z,59.47
2019-02-11T03:26:34.856Z,60.43
2019-02-11T03:29:06.616Z,63.87
2019-02-11T03:31:38.202Z,62.37
2019-02-11T03:34:09.766Z,64.40
2019-02-11T03:36:41.479Z,66.73
2019-02-11T03:39:12.992Z,64.43
2019-02-11T03:41:44.664Z,66.47
2019-02-11T03:44:16.339Z,69.03
2019-02-11T03:46:47.928Z,56.90
2019-02-11T03:49:19.643Z,70.03
2019-02-11T03:51:51.338Z,69.10
2019-02-11T03:54:22.846Z,64.03
2019-02-11T03:56:54.575Z,72.43
2019-02-11T03:59:26.208Z,59.67
2019-02-11T04:01:57.887Z,66.90
2019-02-11T04:04:29.510Z,69.13
2019-02-11T04:07:01.155Z,71.30
2019-02-11T04:09:32.745Z,74.13
2019-02-11T04:12:04.354Z,69.20
2019-02-11T04:14:35.995Z,73.77
2019-02-11T04:17:07.569Z,63.13
2019-02-11T04:19:39.057Z,65.40
2019-02-11T04:22:11.263Z,71.53
2019-02-11T04:24:42.818Z,74.83
2019-02-11T04:27:14.440Z,76.03
2019-02-11T04:29:46.098Z,83.97
2019-02-11T04:32:17.578Z,71.20
2019-02-11T04:34:49.130Z,83.53
2019-02-11T04:37:20.577Z,72.17
2019-02-11T04:39:52.288Z,77.03
2019-02-11T04:42:24.920Z,78.73
2019-02-11T04:44:56.457Z,75.93
2019-02-11T04:47:27.940Z,70.97
2019-02-11T04:49:59.478Z,88.77
2019-02-11T04:52:30.979Z,85.47
2019-02-11T04:55:02.598Z,79.13
2019-02-11T04:57:34.198Z,78.27
2019-02-11T05:00:06.707Z,77.33
2019-02-11T05:02:41.251Z,72.13
2019-02-11T05:05:13.202Z,72.07
2019-02-11T05:07:44.852Z,74.17
2019-02-11T05:10:16.563Z,79.97
2019-02-11T05:12:48.090Z,84.13
2019-02-11T05:15:19.624Z,86.47
2019-02-11T05:17:51.204Z,84.73
2019-02-11T05:20:22.834Z,87.60
2019-02-11T05:22:54.435Z,92.83
2019-02-11T05:25:25.943Z,94.93
2019-02-11T05:27:57.482Z,88.67
2019-02-11T05:30:29.126Z,106.70
2019-02-11T05:33:00.926Z,166.80
2019-02-11T05:35:32.584Z,262.20
2019-02-11T05:38:04.202Z,153.00
2019-02-11T05:40:35.913Z,145.23
2019-02-11T05:43:09.843Z,127.67
2019-02-11T05:45:41.399Z,242.80
2019-02-11T05:48:12.960Z,191.83
2019-02-11T05:50:44.453Z,143.90
2019-02-11T05:53:15.882Z,220.57
2019-02-11T05:55:47.582Z,240.63
2019-02-11T05:58:19.156Z,240.57
2019-02-11T06:00:50.745Z,152.23
2019-02-11T06:03:22.249Z,108.10
2019-02-11T06:05:53.898Z,160.13
2019-02-11T06:08:25.358Z,153.20
2019-02-11T06:10:56.949Z,124.00
2019-02-11T06:13:28.499Z,94.00
2019-02-11T06:16:02.881Z,126.53
2019-02-11T06:18:34.370Z,128.83
2019-02-11T06:21:06.082Z,87.53
2019-02-11T06:23:37.622Z,84.60
2019-02-11T06:26:09.180Z,119.13
2019-02-11T06:28:42.441Z,102.20
2019-02-11T06:31:13.974Z,98.47
2019-02-11T06:33:46.834Z,123.20
2019-02-11T06:36:18.475Z,133.73
2019-02-11T06:38:50.114Z,118.83
2019-02-11T06:41:21.639Z,99.10
2019-02-11T06:43:53.197Z,96.80
2019-02-11T06:46:24.799Z,98.50
2019-02-11T06:48:56.341Z,80.47
2019-02-11T06:51:28.050Z,97.13
2019-02-11T06:53:59.827Z,91.03
2019-02-11T06:56:31.408Z,71.43
2019-02-11T06:59:02.945Z,79.03
2019-02-11T07:01:34.593Z,97.37
2019-02-11T07:04:08.443Z,95.30
2019-02-11T07:06:40.030Z,104.97
2019-02-11T07:09:11.561Z,101.67
2019-02-11T07:11:43.110Z,105.80
2019-02-11T07:14:14.503Z,95.87
2019-02-11T07:16:46.078Z,90.00
2019-02-11T07:19:17.647Z,85.03
2019-02-11T07:21:49.190Z,82.10
2019-02-11T07:24:20.760Z,88.17
2019-02-11T07:26:52.280Z,74.40
2019-02-11T07:29:23.888Z,75.47
2019-02-11T07:31:55.462Z,68.43
2019-02-11T07:34:26.995Z,80.20
2019-02-11T07:36:58.457Z,90.70
2019-02-11T07:39:30.087Z,82.67
2019-02-11T07:42:18.837Z,81.30
2019-02-11T07:45:02.471Z,64.90
2019-02-11T07:47:36.971Z,65.80
2019-02-11T07:50:08.729Z,64.93
2019-02-11T07:52:41.633Z,71.00
2019-02-11T07:55:13.287Z,71.20
2019-02-11T07:57:44.778Z,65.03
2019-02-11T08:00:16.504Z,67.90
2019-02-11T08:02:49.844Z,71.60
2019-02-11T08:05:21.695Z,67.67
2019-02-11T08:07:53.291Z,68.70
2019-02-11T08:10:24.838Z,61.53
2019-02-11T08:12:56.367Z,70.27
2019-02-11T08:15:28.157Z,57.90
2019-02-11T08:18:06.691Z,59.60
2019-02-11T08:20:38.229Z,76.70
2019-02-11T08:23:13.594Z,63.70
2019-02-11T08:25:44.262Z,72.17
2019-02-11T08:28:19.496Z,52.20
2019-02-11T08:30:49.103Z,50.63
2019-02-11T08:33:20.719Z,60.97
2019-02-11T08:35:52.381Z,50.70
2019-02-11T08:38:24.109Z,55.07
2019-02-11T08:40:55.741Z,62.60
2019-02-11T08:43:27.412Z,61.43
2019-02-11T08:45:59.101Z,58.77
2019-02-11T08:48:30.693Z,54.10
2019-02-11T08:51:02.262Z,52.13
2019-02-11T08:53:35.233Z,56.30
2019-02-11T08:56:06.840Z,59.93
2019-02-11T08:58:38.437Z,56.67
2019-02-11T09:01:13.611Z,51.90
2019-02-11T09:03:45.255Z,65.07
2019-02-11T09:06:18.062Z,51.57
2019-02-11T09:08:52.682Z,49.67
2019-02-11T09:11:24.285Z,53.07
2019-02-11T09:13:55.908Z,53.27
2019-02-11T09:16:27.565Z,55.80
2019-02-11T09:18:59.146Z,55.00
2019-02-11T09:21:30.754Z,53.20
2019-02-11T09:24:02.391Z,78.70
2019-02-11T09:26:33.851Z,46.23
2019-02-11T09:29:05.617Z,40.93
2019-02-11T09:31:37.170Z,35.43
2019-02-11T09:34:08.810Z,46.83
2019-02-11T09:36:40.370Z,45.67
2019-02-11T09:39:11.957Z,47.10
2019-02-11T09:41:43.765Z,43.27
2019-02-11T09:44:15.314Z,34.03
2019-02-11T09:46:46.828Z,41.67
2019-02-11T09:49:18.534Z,45.03
2019-02-11T09:51:50.728Z,52.47
2019-02-11T09:54:22.324Z,41.93
2019-02-11T09:56:53.815Z,45.50
2019-02-11T09:59:25.399Z,38.60
2019-02-11T10:01:58.093Z,46.27
2019-02-11T10:04:29.684Z,37.87
2019-02-11T10:07:01.315Z,51.50
2019-02-11T10:09:33.020Z,65.53
2019-02-11T10:12:04.761Z,46.23
2019-02-11T10:14:39.945Z,44.53
2019-02-11T10:17:11.455Z,39.73
2019-02-11T10:19:43.117Z,42.63
2019-02-11T10:22:14.619Z,49.57
2019-02-11T10:24:46.317Z,39.03
2019-02-11T10:27:17.857Z,44.30
2019-02-11T10:29:49.460Z,49.60
2019-02-11T10:32:21.100Z,47.60
2019-02-11T10:34:53.837Z,48.17
2019-02-11T10:37:25.539Z,49.43
2019-02-11T10:39:57.149Z,41.17
2019-02-11T10:42:28.878Z,36.70
2019-02-11T10:45:00.605Z,36.90
2019-02-11T10:47:32.335Z,39.70
2019-02-11T10:50:04.215Z,35.80
2019-02-11T10:52:35.957Z,30.60
2019-02-11T10:55:09.153Z,29.63
2019-02-11T10:57:41.436Z,31.20
2019-02-11T11:00:15.778Z,25.90
2019-02-11T11:02:47.389Z,30.37
2019-02-11T11:05:19.100Z,32.00
2019-02-11T11:07:50.938Z,41.03
2019-02-11T11:10:28.370Z,32.83
2019-02-11T11:13:01.136Z,31.50
2019-02-11T11:15:32.909Z,39.33
2019-02-11T11:18:04.815Z,33.93
2019-02-11T11:20:38.139Z,38.07
2019-02-11T11:23:09.805Z,35.23
2019-02-11T11:25:41.352Z,42.47
2019-02-11T11:28:13.029Z,47.03
2019-02-11T11:30:44.772Z,27.63
2019-02-11T11:33:28.692Z,31.25
2019-02-11T11:36:00.547Z,30.70
2019-02-11T11:38:32.213Z,32.07
2019-02-11T11:41:04.242Z,33.30
2019-02-11T11:43:35.982Z,28.03
2019-02-11T11:46:07.615Z,34.53
2019-02-11T11:48:39.357Z,28.87
2019-02-11T11:51:10.981Z,33.60
2019-02-11T11:53:42.564Z,35.83
2019-02-11T11:56:14.085Z,27.20
2019-02-11T11:58:45.817Z,31.27
2019-02-11T12:01:19.387Z,31.20
2019-02-11T12:03:51.118Z,32.33
2019-02-11T12:06:25.911Z,46.57
2019-02-11T12:08:59.369Z,43.43
2019-02-11T12:11:31.996Z,31.10
2019-02-11T12:14:07.507Z,31.80
2019-02-11T12:16:56.210Z,45.07
2019-02-11T12:19:17.143Z,40.47
2019-02-11T12:21:50.246Z,41.90
2019-02-11T12:24:24.732Z,39.80
2019-02-11T12:26:57.293Z,43.97
2019-02-11T12:29:29.768Z,38.07
2019-02-11T12:32:01.784Z,23.87
2019-02-11T12:34:34.353Z,26.73
2019-02-11T12:37:09.491Z,42.20
2019-02-11T12:39:43.997Z,32.60
2019-02-11T12:42:17.702Z,23.13
2019-02-11T12:44:53.421Z,39.63
2019-02-11T12:47:28.479Z,38.53
2019-02-11T12:50:01.037Z,39.03
2019-02-11T12:52:32.678Z,50.93
2019-02-11T12:55:07.629Z,42.33
2019-02-11T12:57:37.717Z,31.90
2019-02-11T13:00:16.248Z,31.63
2019-02-11T13:02:46.011Z,28.90
2019-02-11T13:05:22.077Z,29.57
2019-02-11T13:07:53.647Z,21.60
2019-02-11T13:10:25.228Z,32.47
2019-02-11T13:12:56.913Z,25.00
2019-02-11T13:15:56.775Z,26.53
2019-02-11T13:18:04.964Z,21.47
2019-02-11T13:20:37.726Z,23.17
2019-02-11T13:23:09.436Z,21.60
2019-02-11T13:25:41.310Z,25.70
2019-02-11T13:28:13.019Z,26.73
2019-02-11T13:30:44.685Z,27.33
2019-02-11T13:33:16.385Z,20.00
2019-02-11T13:35:48.050Z,31.27
2019-02-11T13:38:20.444Z,29.00
2019-02-11T13:40:51.934Z,22.90
2019-02-11T13:43:23.475Z,22.00
2019-02-11T13:45:54.997Z,21.67
2019-02-11T13:48:26.741Z,29.80
2019-02-11T13:51:00.074Z,24.97
2019-02-11T13:53:31.846Z,28.87
2019-02-11T13:56:06.885Z,29.47
2019-02-11T13:58:38.467Z,36.23
2019-02-11T14:01:12.336Z,32.83
2019-02-11T14:03:43.996Z,37.50
2019-02-11T14:06:17.311Z,32.53
2019-02-11T14:08:50.037Z,28.37
2019-02-11T14:11:23.058Z,32.77
2019-02-11T14:14:02.649Z,33.57
2019-02-11T14:16:28.151Z,28.33
2019-02-11T14:19:00.042Z,38.07
2019-02-11T14:21:31.712Z,36.00
2019-02-11T14:24:03.427Z,31.93
2019-02-11T14:26:35.161Z,37.07
2019-02-11T14:29:06.855Z,32.23
2019-02-11T14:31:38.550Z,30.90
2019-02-11T14:34:11.086Z,34.50
2019-02-11T14:36:43.979Z,37.30
2019-02-11T14:39:16.919Z,59.13
2019-02-11T14:41:48.737Z,44.93
2019-02-11T14:44:20.621Z,50.20
2019-02-11T14:46:52.359Z,55.10
2019-02-11T14:49:26.912Z,49.57
2019-02-11T14:51:58.639Z,55.63
2019-02-11T14:54:30.409Z,62.23
2019-02-11T14:57:02.205Z,74.63
2019-02-11T14:59:33.719Z,70.07
2019-02-11T15:02:05.399Z,68.17
2019-02-11T15:04:36.924Z,65.57
2019-02-11T15:07:08.452Z,60.90
2019-02-11T15:09:40.046Z,56.37
2019-02-11T15:12:11.545Z,67.00
2019-02-11T15:14:43.024Z,66.00
2019-02-11T15:17:14.617Z,62.10
2019-02-11T15:19:46.147Z,59.30
2019-02-11T15:22:17.667Z,63.07
2019-02-11T15:24:49.374Z,63.73
2019-02-11T15:27:20.938Z,60.00
2019-02-11T15:29:52.414Z,63.37
2019-02-11T15:32:26.953Z,65.87
2019-02-11T15:34:58.629Z,67.47
2019-02-11T15:37:31.768Z,60.60
2019-02-11T15:40:03.357Z,57.53
2019-02-11T15:42:34.969Z,56.50
2019-02-11T15:45:07.897Z,66.63
2019-02-11T15:47:39.437Z,60.90
2019-02-11T15:50:12.480Z,60.53
2019-02-11T15:52:45.129Z,61.07
2019-02-11T15:55:18.421Z,59.97
2019-02-11T15:57:50.005Z,61.97
2019-02-11T16:00:22.456Z,53.47
2019-02-11T16:02:54.138Z,59.53
2019-02-11T16:05:25.740Z,59.10
2019-02-11T16:07:58.860Z,55.60
2019-02-11T16:10:30.469Z,62.37
2019-02-11T16:13:02.779Z,59.20
2019-02-11T16:15:34.519Z,57.83
2019-02-11T16:18:07.267Z,70.43
2019-02-11T16:20:38.806Z,73.57
2019-02-11T16:23:10.559Z,72.63
2019-02-11T16:25:42.110Z,61.70
2019-02-11T16:28:15.092Z,76.13
2019-02-11T16:30:47.275Z,71.30
2019-02-11T16:33:18.987Z,67.80
2019-02-11T16:35:50.706Z,70.37
2019-02-11T16:38:22.441Z,63.13
2019-02-11T16:40:57.014Z,56.03
2019-02-11T16:43:28.625Z,55.97
2019-02-11T16:46:00.340Z,59.23
2019-02-11T16:48:32.035Z,50.60
2019-02-11T16:51:03.687Z,54.70
2019-02-11T16:53:35.216Z,53.03
2019-02-11T16:56:06.848Z,49.17
2019-02-11T16:58:38.465Z,50.90
2019-02-11T17:01:11.323Z,49.10
2019-02-11T17:03:42.971Z,49.07
2019-02-11T17:06:14.563Z,55.83
2019-02-11T17:08:46.158Z,47.80
2019-02-11T17:11:17.602Z,51.50
2019-02-11T17:13:49.222Z,48.17
2019-02-11T17:16:21.008Z,57.67
2019-02-11T17:18:52.628Z,58.10
2019-02-11T17:21:43.027Z,58.80
2019-02-11T17:24:14.601Z,56.47
2019-02-11T17:26:46.075Z,52.90
2019-02-11T17:29:17.712Z,54.17
2019-02-11T17:31:49.223Z,53.87
2019-02-11T17:34:20.833Z,53.23
2019-02-11T17:36:54.944Z,52.37
2019-02-11T17:39:26.649Z,46.13
2019-02-11T17:41:58.248Z,55.47
2019-02-11T17:44:31.465Z,47.83
2019-02-11T17:47:02.968Z,46.13
2019-02-11T17:49:34.626Z,55.07
2019-02-11T17:52:07.484Z,51.13
2019-02-11T17:54:39.137Z,46.93
2019-02-11T17:57:10.659Z,50.40
2019-02-11T17:59:42.527Z,42.43
2019-02-11T18:02:15.988Z,51.03
2019-02-11T18:04:47.536Z,62.33
2019-02-11T18:07:19.279Z,54.13
2019-02-11T18:09:50.780Z,52.33
2019-02-11T18:12:24.504Z,49.43
2019-02-11T18:14:55.895Z,49.50
2019-02-11T18:17:27.636Z,54.20
2019-02-11T18:19:59.329Z,38.70
2019-02-11T18:22:33.166Z,42.10
2019-02-11T18:25:04.683Z,39.40
2019-02-11T18:27:36.238Z,38.60
2019-02-11T18:30:08.399Z,53.80
2019-02-11T18:32:40.039Z,50.50
2019-02-11T18:35:14.134Z,43.10
2019-02-11T18:37:45.967Z,50.43
2019-02-11T18:40:17.878Z,51.53
2019-02-11T18:42:51.961Z,69.67
2019-02-11T18:45:25.558Z,61.30
2019-02-11T18:47:57.952Z,48.13
2019-02-11T18:50:29.501Z,49.23
2019-02-11T18:53:01.202Z,37.87
2019-02-11T18:55:38.755Z,49.37
2019-02-11T18:58:10.318Z,45.87
2019-02-11T19:00:41.937Z,38.93
2019-02-11T19:03:14.809Z,47.10
2019-02-11T19:05:46.391Z,52.93
2019-02-11T19:08:17.963Z,43.63
2019-02-11T19:10:49.573Z,64.30
2019-02-11T19:13:21.161Z,45.80
2019-02-11T19:15:52.812Z,51.07
2019-02-11T19:18:24.434Z,39.90
2019-02-11T19:20:57.663Z,51.90
2019-02-11T19:23:29.268Z,42.17
2019-02-11T19:26:00.995Z,35.33
2019-02-11T19:28:32.758Z,37.10
2019-02-11T19:31:04.350Z,33.30
2019-02-11T19:33:36.035Z,42.13
2019-02-11T19:36:07.666Z,39.10
2019-02-11T19:38:39.199Z,39.80
2019-02-11T19:41:10.828Z,31.97
2019-02-11T19:43:42.455Z,41.37
2019-02-11T19:46:13.906Z,28.13
2019-02-11T19:48:46.615Z,33.60
2019-02-11T19:51:18.340Z,26.83
2019-02-11T19:53:49.910Z,28.87
2019-02-11T19:56:21.559Z,36.30
2019-02-11T19:58:53.180Z,30.00
2019-02-11T20:01:24.876Z,31.00
2019-02-11T20:03:56.691Z,24.63
2019-02-11T20:06:28.206Z,27.87
2019-02-11T20:08:59.965Z,27.70
2019-02-11T20:11:31.585Z,38.03
2019-02-11T20:14:04.796Z,36.00
2019-02-11T20:16:36.273Z,31.97
2019-02-11T20:19:07.809Z,36.90
2019-02-11T20:21:39.298Z,35.23
2019-02-11T20:24:10.990Z,36.27
2019-02-11T20:26:44.216Z,29.57
2019-02-11T20:29:15.931Z,24.67
2019-02-11T20:31:47.590Z,32.20
2019-02-11T20:34:19.212Z,29.00
2019-02-11T20:36:50.761Z,30.07
2019-02-11T20:39:25.506Z,31.30
2019-02-11T20:42:01.014Z,23.03
2019-02-11T20:44:33.238Z,28.23
2019-02-11T20:47:10.192Z,27.97
2019-02-11T20:49:41.860Z,25.83
2019-02-11T20:52:14.721Z,26.53
2019-02-11T20:54:46.250Z,27.07
2019-02-11T20:57:17.868Z,29.97
2019-02-11T20:59:52.440Z,33.00
2019-02-11T21:02:24.093Z,31.10
2019-02-11T21:04:55.731Z,21.03
2019-02-11T21:07:28.875Z,21.83
2019-02-11T21:10:00.614Z,18.97
2019-02-11T21:12:32.241Z,34.60
2019-02-11T21:15:03.754Z,58.23
2019-02-11T21:17:35.330Z,20.00
2019-02-11T21:20:08.498Z,32.40
2019-02-11T21:22:41.688Z,45.90
2019-02-11T21:25:13.389Z,45.27
2019-02-11T21:27:44.982Z,33.30
2019-02-11T21:30:16.681Z,30.57
2019-02-11T21:32:48.301Z,29.63
2019-02-11T21:35:19.836Z,38.67
2019-02-11T21:37:51.454Z,27.83
2019-02-11T21:40:26.019Z,36.73
2019-02-11T21:42:57.750Z,29.83
2019-02-11T21:45:29.281Z,53.10
2019-02-11T21:48:00.886Z,68.10
2019-02-11T21:50:34.158Z,64.83
2019-02-11T21:53:05.731Z,45.10
2019-02-11T21:55:37.389Z,52.53
2019-02-11T21:58:08.890Z,44.93
2019-02-11T22:00:40.451Z,42.30
2019-02-11T22:03:12.588Z,39.80
2019-02-11T22:05:44.576Z,26.83
2019-02-11T22:08:16.141Z,33.57
2019-02-11T22:10:47.756Z,43.73
2019-02-11T22:13:19.393Z,33.67
2019-02-11T22:15:51.011Z,32.00
2019-02-11T22:18:22.669Z,38.03
2019-02-11T22:20:54.290Z,31.80
2019-02-11T22:23:25.905Z,33.17
2019-02-11T22:25:57.538Z,29.47
2019-02-11T22:28:29.222Z,25.83
2019-02-11T22:31:00.891Z,26.77
2019-02-11T22:33:32.509Z,29.07
2019-02-11T22:36:04.231Z,32.30
2019-02-11T22:38:35.778Z,27.20
2019-02-11T22:41:08.405Z,30.80
2019-02-11T22:43:39.939Z,32.13
2019-02-11T22:46:11.528Z,26.00
2019-02-11T22:48:43.311Z,25.10
2019-02-11T22:51:14.953Z,31.23
2019-02-11T22:53:47.051Z,26.53
2019-02-11T22:56:20.353Z,34.60
2019-02-11T22:58:51.936Z,23.47
2019-02-11T23:01:23.766Z,21.43
2019-02-11T23:03:56.075Z,15.47
2019-02-11T23:06:27.615Z,22.93
2019-02-11T23:08:59.356Z,19.30
2019-02-11T23:11:30.846Z,19.17
2019-02-11T23:14:02.413Z,23.30
2019-02-11T23:16:33.938Z,21.80
2019-02-11T23:19:06.046Z,19.43
2019-02-11T23:21:40.496Z,16.43
2019-02-11T23:24:18.233Z,12.33
2019-02-11T23:26:49.953Z,16.07
2019-02-11T23:29:21.501Z,13.57
2019-02-11T23:31:53.112Z,13.50
2019-02-11T23:34:24.675Z,16.10
2019-02-11T23:36:56.359Z,19.20
2019-02-11T23:39:28.948Z,17.10
2019-02-11T23:42:00.577Z,16.60
2019-02-11T23:44:32.054Z,13.27
2019-02-11T23:47:03.744Z,24.40
2019-02-11T23:49:35.274Z,16.47
2019-02-11T23:52:06.916Z,16.20
2019-02-11T23:54:39.634Z,16.57
2019-02-11T23:57:11.195Z,21.03
2019-02-11T23:59:42.767Z,16.00
